Cathma — PJTL — position and weather

sailwx.info

Track history (hours):
 
Tides and Currents Weather Stations Pressure Air Temp Water Temp Dewpoint Dewpoint Depression Visibility Wind Speed Wind Dir Waves Ship Positions

Cathma

Last reported at 2014-Oct-31 02:32 UTC. Time now 2014-Oct-31 05:02 UTC.
Position N 43°43' W 005°45'.

Length 111 m; draft 3.9 m.

Type: Ship. MMSI: 306832000.

Date/timePositionNaut miles runAvg speedWind from/ knotsBaromVisibWave heightAir tempDewpointWater temp
2014-Oct-31 02:32N 43°43' W 005°45'1010.4
2014-Oct-31 01:34N 43°42' W 005°31'1110.5
2014-Oct-31 00:32N 43°41' W 005°16'  
2014-Oct-28 19:13N 43°31' W 002°04'19810.9
2014-Oct-28 01:06N 46°26' W 004°15'8611.2
2014-Oct-27 17:25N 47°42' W 005°14'11 9.8
2014-Oct-27 16:15N 47°53' W 005°22'145 8.0
2014-Oct-26 22:16N 49°51' W 003°16'7 9.7
2014-Oct-26 21:33N 49°54' W 003°07'11 9.0
2014-Oct-26 20:21N 49°59' W 002°51'7 9.0
2014-Oct-26 19:33N 50°01' W 002°41'11511.4
2014-Oct-26 09:27N 50°33' E 000°12'8 8.8
2014-Oct-26 08:33N 50°35' E 000°24'1010.2
2014-Oct-26 07:33N 50°39' E 000°39'1311.6
2014-Oct-26 06:27N 50°47' E 000°55'1411.9
2014-Oct-26 05:16N 50°56' E 001°12'811.1
2014-Oct-26 04:33N 51°01' E 001°21'1010.0
2014-Oct-26 03:33N 51°08' E 001°33'8 8.3
2014-Oct-26 02:33N 51°13' E 001°44'8 8.3
2014-Oct-26 01:33N 51°20' E 001°50'9 9.1
2014-Oct-26 00:34N 51°28' E 001°57'1110.6
2014-Oct-25 23:31N 51°36' E 002°09'1111.6
2014-Oct-25 22:33N 51°44' E 002°21'31210.4
2014-Oct-24 16:30N 56°14' E 006°48'9 9.2
2014-Oct-24 15:32N 56°21' E 006°57'134 8.8
2014-Oct-24 00:18N 57°45' E 010°09'810.1
2014-Oct-23 23:33N 57°46' E 010°23'10 9.6
2014-Oct-23 22:33N 57°49' E 010°40'1010.5
2014-Oct-23 21:33N 57°43' E 010°56'1010.3
2014-Oct-23 20:33N 57°35' E 011°09'1110.6
2014-Oct-23 19:33N 57°25' E 011°07'3 3.0
2014-Oct-23 18:33N 57°22' E 011°07'0 0.0
2014-Oct-23 17:33N 57°22' E 011°07'0 0.2
2014-Oct-23 16:33N 57°22' E 011°07'10 9.5
2014-Oct-23 15:33N 57°19' E 011°24'1111.4
2014-Oct-23 14:33N 57°11' E 011°37'1111.3
2014-Oct-23 13:33N 56°60' E 011°44'1111.2
2014-Oct-23 12:32N 56°49' E 011°51'1111.7
2014-Oct-23 11:33N 56°38' E 011°57'1111.3
2014-Oct-23 10:33N 56°27' E 012°02'1110.9
2014-Oct-23 09:33N 56°17' E 012°08'1111.2
2014-Oct-23 08:33N 56°10' E 012°25'1211.7
2014-Oct-23 07:33N 56°02' E 012°40'1110.8
2014-Oct-23 06:34N 55°52' E 012°44'1111.1
2014-Oct-23 05:33N 55°41' E 012°41'10 9.6
2014-Oct-23 04:33N 55°31' E 012°43'1110.7
2014-Oct-23 03:33N 55°21' E 012°41'1010.0
2014-Oct-23 02:33N 55°16' E 012°56'3311.0
2014-Oct-22 23:33N 55°14' E 013°55'1111.2
2014-Oct-22 22:33N 55°14' E 014°14'1110.7
2014-Oct-22 21:33N 55°21' E 014°27'1110.9
2014-Oct-22 20:33N 55°29' E 014°41'1110.7
2014-Oct-22 19:33N 55°34' E 014°57'1110.7
2014-Oct-22 18:33N 55°40' E 015°14'2311.0
2014-Oct-22 16:30N 55°51' E 015°49'1111.4
2014-Oct-22 15:30N 55°57' E 016°06'1111.3
2014-Oct-22 14:33N 56°02' E 016°22'7110.1
2014-Oct-22 07:30N 57°05' E 017°23'1010.4
2014-Oct-22 06:33N 57°15' E 017°30'1110.9
2014-Oct-22 05:33N 57°25' E 017°37'  
Track history (hours):
 
Tides and Currents Weather Stations Pressure Air Temp Water Temp Dewpoint Dewpoint Depression Visibility Wind Speed Wind Dir Waves Ship Positions

Cathma

Last reported at 2014-Oct-31 02:32 UTC. Time now 2014-Oct-31 05:03 UTC.
Position N 43°43' W 005°45'.

Length 111 m; draft 3.9 m.

Type: Ship. MMSI: 306832000.

Date/timePositionNaut miles runAvg speedWind from/ knotsBaromVisibWave heightAir tempDewpointWater temp
2014-Oct-31 02:32N 43°43' W 005°45'1010.4
2014-Oct-31 01:34N 43°42' W 005°31'1110.5
2014-Oct-31 00:32N 43°41' W 005°16'  
2014-Oct-28 19:13N 43°31' W 002°04'19810.9
2014-Oct-28 01:06N 46°26' W 004°15'8611.2
2014-Oct-27 17:25N 47°42' W 005°14'11 9.8
2014-Oct-27 16:15N 47°53' W 005°22'145 8.0
2014-Oct-26 22:16N 49°51' W 003°16'7 9.7
2014-Oct-26 21:33N 49°54' W 003°07'11 9.0
2014-Oct-26 20:21N 49°59' W 002°51'7 9.0
2014-Oct-26 19:33N 50°01' W 002°41'11511.4
2014-Oct-26 09:27N 50°33' E 000°12'8 8.8
2014-Oct-26 08:33N 50°35' E 000°24'1010.2
2014-Oct-26 07:33N 50°39' E 000°39'1311.6
2014-Oct-26 06:27N 50°47' E 000°55'1411.9
2014-Oct-26 05:16N 50°56' E 001°12'811.1
2014-Oct-26 04:33N 51°01' E 001°21'1010.0
2014-Oct-26 03:33N 51°08' E 001°33'8 8.3
2014-Oct-26 02:33N 51°13' E 001°44'8 8.3
2014-Oct-26 01:33N 51°20' E 001°50'9 9.1
2014-Oct-26 00:34N 51°28' E 001°57'1110.6
2014-Oct-25 23:31N 51°36' E 002°09'1111.6
2014-Oct-25 22:33N 51°44' E 002°21'31210.4
2014-Oct-24 16:30N 56°14' E 006°48'9 9.2
2014-Oct-24 15:32N 56°21' E 006°57'134 8.8
2014-Oct-24 00:18N 57°45' E 010°09'810.1
2014-Oct-23 23:33N 57°46' E 010°23'10 9.6
2014-Oct-23 22:33N 57°49' E 010°40'1010.5
2014-Oct-23 21:33N 57°43' E 010°56'1010.3
2014-Oct-23 20:33N 57°35' E 011°09'1110.6
2014-Oct-23 19:33N 57°25' E 011°07'3 3.0
2014-Oct-23 18:33N 57°22' E 011°07'0 0.0
2014-Oct-23 17:33N 57°22' E 011°07'0 0.2
2014-Oct-23 16:33N 57°22' E 011°07'10 9.5
2014-Oct-23 15:33N 57°19' E 011°24'1111.4
2014-Oct-23 14:33N 57°11' E 011°37'1111.3
2014-Oct-23 13:33N 56°60' E 011°44'1111.2
2014-Oct-23 12:32N 56°49' E 011°51'1111.7
2014-Oct-23 11:33N 56°38' E 011°57'1111.3
2014-Oct-23 10:33N 56°27' E 012°02'1110.9
2014-Oct-23 09:33N 56°17' E 012°08'1111.2
2014-Oct-23 08:33N 56°10' E 012°25'1211.7
2014-Oct-23 07:33N 56°02' E 012°40'1110.8
2014-Oct-23 06:34N 55°52' E 012°44'1111.1
2014-Oct-23 05:33N 55°41' E 012°41'10 9.6
2014-Oct-23 04:33N 55°31' E 012°43'1110.7
2014-Oct-23 03:33N 55°21' E 012°41'1010.0
2014-Oct-23 02:33N 55°16' E 012°56'3311.0
2014-Oct-22 23:33N 55°14' E 013°55'1111.2
2014-Oct-22 22:33N 55°14' E 014°14'1110.7
2014-Oct-22 21:33N 55°21' E 014°27'1110.9
2014-Oct-22 20:33N 55°29' E 014°41'1110.7
2014-Oct-22 19:33N 55°34' E 014°57'1110.7
2014-Oct-22 18:33N 55°40' E 015°14'2311.0
2014-Oct-22 16:30N 55°51' E 015°49'1111.4
2014-Oct-22 15:30N 55°57' E 016°06'1111.3
2014-Oct-22 14:33N 56°02' E 016°22'7110.1
2014-Oct-22 07:30N 57°05' E 017°23'1010.4
2014-Oct-22 06:33N 57°15' E 017°30'1110.9
2014-Oct-22 05:33N 57°25' E 017°37'  

Dump ship's entire track history